Time;durP1;ratioP1;P1;durP2;ratioP2;P2;SDS_P1;SDS_P2;PMS_P1;PMS_P2;Temp;Humidity;BMP_temperature;BMP_pressure;BME280_temperature;BME280_humidity;BME280_pressure;Samples;Min_cycle;Max_cycle;Signal;HPM_P1;HPM_P2
2022/04/15 00:01:32;;;;;;;11.10;3.90;;;;;;;;;;5032043;28;20040;-72
2022/04/15 00:03:58;;;;;;;6.78;3.80;;;;;;;;;;5030935;28;20080;-72
2022/04/15 00:06:24;;;;;;;13.95;3.72;;;;;;;;;;5025118;28;20382;-72
2022/04/15 00:08:50;;;;;;;9.25;3.63;;;;;;;;;;5027762;28;20052;-72
2022/04/15 00:11:16;;;;;;;9.60;4.10;;;;;;;;;;5022038;28;20029;-72
2022/04/15 00:13:45;;;;;;;12.85;3.85;;;;;;;;;;5030769;28;20045;-73
2022/04/15 00:16:11;;;;;;;9.93;3.65;;;;;;;;;;5032561;28;20052;-72
2022/04/15 00:18:37;;;;;;;9.20;3.42;;;;;;;;;;5029523;28;20041;-72
2022/04/15 00:21:03;;;;;;;12.25;3.80;;;;;;;;;;5033459;28;20041;-72
2022/04/15 00:23:30;;;;;;;14.65;4.15;;;;;;;;;;5033764;28;20522;-73
2022/04/15 00:25:56;;;;;;;9.30;3.83;;;;;;;;;;5028425;28;20389;-72
2022/04/15 00:28:22;;;;;;;8.13;3.17;;;;;;;;;;5031729;28;20064;-73
2022/04/15 00:30:48;;;;;;;10.25;3.58;;;;;;;;;;5030627;28;20429;-72
2022/04/15 00:33:14;;;;;;;12.07;3.90;;;;;;;;;;5032367;28;20703;-72
2022/04/15 00:35:40;;;;;;;10.23;4.32;;;;;;;;;;5026057;28;20112;-73
2022/04/15 00:38:06;;;;;;;7.90;3.25;;;;;;;;;;5008562;28;20438;-73
2022/04/15 00:40:33;;;;;;;11.75;4.85;;;;;;;;;;5014328;28;20560;-72
2022/04/15 00:42:59;;;;;;;8.10;4.05;;;;;;;;;;5028813;28;20108;-72
2022/04/15 00:45:25;;;;;;;10.80;3.90;;;;;;;;;;5024261;28;20018;-73
2022/04/15 00:47:55;;;;;;;8.20;3.90;;;;;;;;;;5016984;28;20156;-73
2022/04/15 00:50:22;;;;;;;9.40;4.32;;;;;;;;;;5030589;28;20373;-72
2022/04/15 00:52:49;;;;;;;7.57;3.42;;;;;;;;;;5032656;28;20034;-72
2022/04/15 00:55:16;;;;;;;8.82;4.30;;;;;;;;;;5032242;28;20457;-72
2022/04/15 00:57:43;;;;;;;5.28;3.67;;;;;;;;;;5026183;28;20801;-72
2022/04/15 01:00:10;;;;;;;7.15;3.97;;;;;;;;;;5032134;28;20065;-72
2022/04/15 01:02:37;;;;;;;13.15;4.30;;;;;;;;;;5031673;28;20620;-72
2022/04/15 01:05:04;;;;;;;12.30;3.90;;;;;;;;;;5031657;28;20029;-73
2022/04/15 01:07:33;;;;;;;6.75;3.30;;;;;;;;;;5030335;28;20048;-72
2022/04/15 01:10:00;;;;;;;9.82;4.30;;;;;;;;;;5009553;28;20026;-73
2022/04/15 01:12:29;;;;;;;8.40;4.15;;;;;;;;;;5031597;28;20048;-73
2022/04/15 01:15:00;;;;;;;7.85;3.42;;;;;;;;;;5032259;28;20021;-72
2022/04/15 01:17:28;;;;;;;8.57;4.40;;;;;;;;;;5032400;28;20084;-72
2022/04/15 01:19:54;;;;;;;8.40;3.80;;;;;;;;;;5031243;28;20160;-73
2022/04/15 01:22:23;;;;;;;7.60;4.15;;;;;;;;;;5026882;28;20048;-73
2022/04/15 01:24:49;;;;;;;5.72;3.50;;;;;;;;;;5016768;28;20035;-73
2022/04/15 01:27:27;;;;;;;9.90;5.10;;;;;;;;;;5024224;28;20033;-72
2022/04/15 01:29:53;;;;;;;11.48;3.88;;;;;;;;;;5027147;28;20469;-73
2022/04/15 01:32:19;;;;;;;9.88;4.70;;;;;;;;;;5030237;28;20109;-72
2022/04/15 01:34:46;;;;;;;10.90;4.10;;;;;;;;;;5031047;28;20033;-72
2022/04/15 01:37:13;;;;;;;7.20;3.92;;;;;;;;;;5032222;28;20034;-72
2022/04/15 01:39:39;;;;;;;9.25;3.75;;;;;;;;;;5028868;28;20026;-72
2022/04/15 01:42:05;;;;;;;8.13;4.55;;;;;;;;;;5030009;28;20029;-72
2022/04/15 01:44:31;;;;;;;6.30;3.40;;;;;;;;;;5031102;28;20040;-72
2022/04/15 01:46:57;;;;;;;5.18;3.15;;;;;;;;;;5029053;28;20033;-72
2022/04/15 01:49:24;;;;;;;8.82;3.80;;;;;;;;;;5031653;28;20032;-72
2022/04/15 01:51:50;;;;;;;6.88;3.85;;;;;;;;;;5012127;28;20038;-72
2022/04/15 01:54:16;;;;;;;9.05;4.35;;;;;;;;;;5027953;28;20037;-72
2022/04/15 01:56:42;;;;;;;5.07;3.80;;;;;;;;;;5028571;28;20034;-72
2022/04/15 01:59:09;;;;;;;5.47;3.45;;;;;;;;;;5028336;28;20087;-72
2022/04/15 02:01:36;;;;;;;8.25;3.20;;;;;;;;;;5025039;28;20029;-72
2022/04/15 02:04:02;;;;;;;9.77;4.32;;;;;;;;;;5029884;28;20109;-72
2022/04/15 02:06:28;;;;;;;6.80;3.60;;;;;;;;;;5023542;28;20026;-73
2022/04/15 02:08:54;;;;;;;10.95;5.00;;;;;;;;;;5025413;28;20033;-72
2022/04/15 02:11:20;;;;;;;9.40;4.00;;;;;;;;;;5029576;28;20041;-71
2022/04/15 02:13:46;;;;;;;9.02;3.75;;;;;;;;;;5030262;28;20676;-72
2022/04/15 02:16:12;;;;;;;6.00;3.65;;;;;;;;;;5026794;28;20045;-72
2022/04/15 02:18:38;;;;;;;5.97;3.30;;;;;;;;;;5032553;28;20036;-72
2022/04/15 02:21:04;;;;;;;8.48;4.47;;;;;;;;;;5025370;28;20124;-72
2022/04/15 02:23:31;;;;;;;8.07;3.95;;;;;;;;;;5031740;28;20037;-72
2022/04/15 02:25:57;;;;;;;5.38;3.53;;;;;;;;;;5027318;28;20580;-72
2022/04/15 02:28:23;;;;;;;7.20;3.97;;;;;;;;;;5029726;28;20115;-72
2022/04/15 02:30:49;;;;;;;6.80;3.80;;;;;;;;;;5017226;28;20041;-72
2022/04/15 02:33:15;;;;;;;9.80;3.40;;;;;;;;;;5031278;28;20042;-72
2022/04/15 02:35:42;;;;;;;9.85;4.80;;;;;;;;;;5030211;28;20030;-73
2022/04/15 02:38:08;;;;;;;8.35;3.75;;;;;;;;;;5029725;28;20485;-73
2022/04/15 02:40:34;;;;;;;11.35;3.60;;;;;;;;;;5021145;28;20029;-70
2022/04/15 02:43:00;;;;;;;12.23;4.13;;;;;;;;;;5030816;28;20693;-72
2022/04/15 02:45:28;;;;;;;7.47;3.55;;;;;;;;;;5029742;28;20555;-71
2022/04/15 02:47:55;;;;;;;11.23;4.20;;;;;;;;;;5026730;28;20026;-72
2022/04/15 02:50:21;;;;;;;7.22;4.00;;;;;;;;;;5029602;28;20026;-71
2022/04/15 02:52:47;;;;;;;6.45;3.80;;;;;;;;;;5031324;28;20096;-71
2022/04/15 02:55:13;;;;;;;10.80;4.45;;;;;;;;;;5024143;28;20117;-72
2022/04/15 02:57:39;;;;;;;6.20;3.58;;;;;;;;;;5028318;28;20033;-71
2022/04/15 03:00:06;;;;;;;8.27;4.30;;;;;;;;;;5028145;28;20034;-72
2022/04/15 03:02:32;;;;;;;12.10;4.13;;;;;;;;;;5035677;28;20025;-71
2022/04/15 03:04:59;;;;;;;6.03;3.50;;;;;;;;;;5034693;28;20159;-71
2022/04/15 03:07:25;;;;;;;6.93;4.15;;;;;;;;;;5020435;28;20021;-72
2022/04/15 03:09:51;;;;;;;7.18;4.05;;;;;;;;;;5021234;28;20350;-72
2022/04/15 03:12:17;;;;;;;12.70;4.03;;;;;;;;;;5030278;28;20057;-74
2022/04/15 03:14:44;;;;;;;9.50;4.20;;;;;;;;;;5033605;28;20030;-72
2022/04/15 03:17:11;;;;;;;8.80;4.10;;;;;;;;;;5015367;28;20046;-72
2022/04/15 03:19:38;;;;;;;9.15;4.03;;;;;;;;;;5011865;28;20038;-72
2022/04/15 03:22:05;;;;;;;11.07;4.28;;;;;;;;;;5017139;28;20038;-72
2022/04/15 03:24:31;;;;;;;5.47;3.45;;;;;;;;;;4997827;28;20049;-72
2022/04/15 03:26:57;;;;;;;9.60;3.90;;;;;;;;;;5014222;28;20046;-72
2022/04/15 03:29:23;;;;;;;15.93;3.90;;;;;;;;;;5009966;28;20026;-71
2022/04/15 03:31:50;;;;;;;8.88;3.42;;;;;;;;;;5009903;28;20057;-72
2022/04/15 03:34:16;;;;;;;11.13;3.55;;;;;;;;;;5008858;28;20054;-72
2022/04/15 03:36:42;;;;;;;5.15;3.40;;;;;;;;;;5014255;28;20045;-72
2022/04/15 03:39:08;;;;;;;6.72;3.60;;;;;;;;;;5010497;28;20045;-72
2022/04/15 03:41:34;;;;;;;7.80;4.10;;;;;;;;;;5005991;28;20359;-72
2022/04/15 03:44:01;;;;;;;7.35;3.17;;;;;;;;;;5014020;28;20030;-72
2022/04/15 03:46:27;;;;;;;8.65;4.05;;;;;;;;;;5014055;28;20034;-72
2022/04/15 03:48:53;;;;;;;11.00;3.63;;;;;;;;;;5012863;28;20049;-71
2022/04/15 03:51:20;;;;;;;11.65;3.90;;;;;;;;;;5007483;28;20470;-72
2022/04/15 03:53:46;;;;;;;9.07;3.30;;;;;;;;;;5002925;28;20044;-71
2022/04/15 03:56:12;;;;;;;16.77;3.70;;;;;;;;;;5026605;28;20462;-71
2022/04/15 03:58:38;;;;;;;8.40;3.72;;;;;;;;;;5010856;28;20478;-71
2022/04/15 04:01:05;;;;;;;9.82;3.88;;;;;;;;;;5013241;28;20029;-72
2022/04/15 04:03:31;;;;;;;9.02;3.75;;;;;;;;;;5014095;28;20042;-71
2022/04/15 04:05:57;;;;;;;7.97;3.53;;;;;;;;;;5016553;28;20509;-71
2022/04/15 04:08:23;;;;;;;12.15;4.18;;;;;;;;;;5007383;28;20037;-71
2022/04/15 04:10:49;;;;;;;9.80;4.78;;;;;;;;;;5016008;28;20037;-71
2022/04/15 04:13:15;;;;;;;13.07;8.40;;;;;;;;;;5012789;28;20033;-70
2022/04/15 04:15:41;;;;;;;10.30;5.10;;;;;;;;;;5011603;28;20412;-68
2022/04/15 04:18:09;;;;;;;9.77;5.22;;;;;;;;;;5032902;28;20040;-76
2022/04/15 04:20:36;;;;;;;8.68;3.95;;;;;;;;;;5031498;28;20397;-70
2022/04/15 04:23:02;;;;;;;5.88;3.92;;;;;;;;;;5030054;28;20037;-72
2022/04/15 04:25:28;;;;;;;7.00;3.78;;;;;;;;;;5032847;28;20053;-71
2022/04/15 04:27:54;;;;;;;10.43;4.80;;;;;;;;;;5032233;28;20029;-70
2022/04/15 04:30:21;;;;;;;5.85;4.10;;;;;;;;;;5032495;28;20124;-71
2022/04/15 04:32:50;;;;;;;10.20;3.80;;;;;;;;;;5031687;28;20069;-72
2022/04/15 04:35:18;;;;;;;11.70;5.78;;;;;;;;;;5027342;28;20034;-71
2022/04/15 04:37:44;;;;;;;12.63;7.05;;;;;;;;;;5026674;28;20112;-70
2022/04/15 04:40:10;;;;;;;16.98;7.22;;;;;;;;;;5032369;28;20030;-70
2022/04/15 04:42:37;;;;;;;17.55;6.63;;;;;;;;;;5029231;28;20207;-70
2022/04/15 04:45:03;;;;;;;18.13;8.23;;;;;;;;;;5031754;28;20037;-70
2022/04/15 04:47:29;;;;;;;17.73;8.15;;;;;;;;;;5031336;28;20124;-72
2022/04/15 04:49:56;;;;;;;10.68;7.40;;;;;;;;;;5031372;28;20661;-72
2022/04/15 04:52:25;;;;;;;9.82;6.93;;;;;;;;;;5029272;28;20377;-72
2022/04/15 04:54:51;;;;;;;8.18;6.68;;;;;;;;;;5026039;28;20025;-73
2022/04/15 04:57:17;;;;;;;16.85;8.43;;;;;;;;;;5013639;28;20432;-71
2022/04/15 04:59:43;;;;;;;13.15;6.60;;;;;;;;;;5033915;28;20100;-72
2022/04/15 05:02:12;;;;;;;10.05;6.38;;;;;;;;;;5029201;28;20048;-73
2022/04/15 05:04:39;;;;;;;8.85;5.75;;;;;;;;;;5028852;28;20124;-73
2022/04/15 05:07:05;;;;;;;10.00;6.25;;;;;;;;;;5029956;28;20018;-73
2022/04/15 05:09:31;;;;;;;9.05;5.97;;;;;;;;;;5031186;28;20029;-71
2022/04/15 05:11:57;;;;;;;9.45;6.30;;;;;;;;;;5030836;28;20056;-71
2022/04/15 05:14:23;;;;;;;10.07;5.68;;;;;;;;;;5026716;28;20041;-71
2022/04/15 05:16:49;;;;;;;11.35;6.15;;;;;;;;;;5025243;28;20053;-71
2022/04/15 05:19:15;;;;;;;14.85;10.57;;;;;;;;;;4989071;28;20044;-70
2022/04/15 05:21:41;;;;;;;8.68;6.10;;;;;;;;;;5009880;28;20038;-71
2022/04/15 05:24:09;;;;;;;9.68;5.50;;;;;;;;;;4997138;28;20043;-72
2022/04/15 05:26:36;;;;;;;6.07;4.63;;;;;;;;;;5000605;28;20185;-72
2022/04/15 05:29:02;;;;;;;8.27;3.90;;;;;;;;;;5010050;28;20040;-73
2022/04/15 05:31:28;;;;;;;5.25;4.15;;;;;;;;;;5008435;28;20554;-72
2022/04/15 05:33:54;;;;;;;6.65;3.42;;;;;;;;;;5011072;28;20034;-72
2022/04/15 05:36:20;;;;;;;7.82;3.80;;;;;;;;;;5010916;28;20057;-72
2022/04/15 05:38:46;;;;;;;5.18;3.45;;;;;;;;;;5009346;28;20032;-73
2022/04/15 05:41:12;;;;;;;9.10;4.60;;;;;;;;;;4989571;28;20501;-72
2022/04/15 05:43:38;;;;;;;5.88;3.60;;;;;;;;;;5011694;28;20707;-73
2022/04/15 05:46:05;;;;;;;5.15;3.25;;;;;;;;;;5020315;28;20036;-73
2022/04/15 05:48:31;;;;;;;7.15;3.40;;;;;;;;;;5002127;28;20034;-73
2022/04/15 05:50:58;;;;;;;4.95;3.13;;;;;;;;;;5002119;28;20104;-73
2022/04/15 05:53:24;;;;;;;7.70;3.72;;;;;;;;;;5008010;28;20046;-73
2022/04/15 05:55:50;;;;;;;7.45;4.50;;;;;;;;;;5009998;28;20478;-77
2022/04/15 05:58:16;;;;;;;12.43;4.60;;;;;;;;;;5010139;28;20060;-75
2022/04/15 06:00:42;;;;;;;5.60;2.90;;;;;;;;;;5015192;28;20037;-72
2022/04/15 06:03:08;;;;;;;4.20;2.90;;;;;;;;;;4989491;28;20485;-72
2022/04/15 06:05:35;;;;;;;3.90;2.72;;;;;;;;;;5002751;28;20037;-73
2022/04/15 06:08:01;;;;;;;2.25;2.13;;;;;;;;;;5009087;28;20034;-73
2022/04/15 06:10:28;;;;;;;3.03;1.88;;;;;;;;;;5010987;28;20026;-73
2022/04/15 06:13:03;;;;;;;4.00;2.00;;;;;;;;;;5010669;28;20057;-73
2022/04/15 06:15:31;;;;;;;1.60;1.50;;;;;;;;;;5002752;28;20038;-72
2022/04/15 06:17:58;;;;;;;2.17;1.50;;;;;;;;;;5023463;28;20033;-72
2022/04/15 06:20:24;;;;;;;1.65;1.50;;;;;;;;;;5028613;28;20052;-72
2022/04/15 06:22:50;;;;;;;4.28;1.80;;;;;;;;;;5030506;28;20033;-72
2022/04/15 06:25:16;;;;;;;2.42;2.00;;;;;;;;;;5028013;28;20533;-72
2022/04/15 06:27:42;;;;;;;6.07;2.95;;;;;;;;;;5012709;28;20462;-73
2022/04/15 06:30:09;;;;;;;3.15;1.98;;;;;;;;;;5017463;28;20444;-73
2022/04/15 06:32:35;;;;;;;5.03;2.88;;;;;;;;;;5024687;28;20028;-80
2022/04/15 06:35:02;;;;;;;6.45;3.33;;;;;;;;;;5002550;28;20037;-78
2022/04/15 06:37:28;;;;;;;5.05;2.70;;;;;;;;;;5025337;28;20022;-78
2022/04/15 06:39:54;;;;;;;4.03;1.60;;;;;;;;;;5024190;28;20061;-79
2022/04/15 06:42:27;;;;;;;3.50;2.17;;;;;;;;;;5017431;28;20568;-72
2022/04/15 06:44:53;;;;;;;3.08;2.63;;;;;;;;;;5026586;28;20047;-73
2022/04/15 06:47:20;;;;;;;3.88;1.90;;;;;;;;;;5024192;28;20029;-72
2022/04/15 06:49:47;;;;;;;3.13;2.20;;;;;;;;;;5034294;28;20080;-72
2022/04/15 06:52:13;;;;;;;5.38;2.10;;;;;;;;;;5024258;28;20021;-73
2022/04/15 06:54:39;;;;;;;6.30;2.17;;;;;;;;;;5034670;28;20041;-72
2022/04/15 06:57:06;;;;;;;4.50;2.53;;;;;;;;;;5027814;28;20030;-72
2022/04/15 06:59:32;;;;;;;6.47;2.90;;;;;;;;;;5034555;28;20033;-72
2022/04/15 07:01:59;;;;;;;6.22;2.90;;;;;;;;;;5035430;28;20481;-72
2022/04/15 07:04:25;;;;;;;5.70;3.28;;;;;;;;;;5054364;28;20048;-72
2022/04/15 07:06:51;;;;;;;6.85;3.47;;;;;;;;;;5037499;28;20071;-72
2022/04/15 07:09:18;;;;;;;13.07;5.32;;;;;;;;;;5020139;28;20034;-70
2022/04/15 07:11:44;;;;;;;5.80;4.20;;;;;;;;;;5021617;28;20081;-71
2022/04/15 07:14:10;;;;;;;8.45;4.20;;;;;;;;;;5025056;28;20131;-71
2022/04/15 07:16:36;;;;;;;6.78;3.88;;;;;;;;;;5010547;28;20050;-70
2022/04/15 07:19:07;;;;;;;6.82;4.97;;;;;;;;;;5005672;28;20422;-70
2022/04/15 07:21:33;;;;;;;8.75;5.63;;;;;;;;;;5001226;28;21611;-70
2022/04/15 07:23:59;;;;;;;7.80;6.28;;;;;;;;;;5004982;28;20117;-71
2022/04/15 07:26:25;;;;;;;8.00;5.32;;;;;;;;;;5008197;28;20030;-71
2022/04/15 07:28:51;;;;;;;9.00;5.70;;;;;;;;;;5006536;28;20133;-70
2022/04/15 07:31:18;;;;;;;6.75;5.63;;;;;;;;;;5006939;28;20430;-71
2022/04/15 07:33:46;;;;;;;7.00;5.10;;;;;;;;;;5007148;28;20045;-70
2022/04/15 07:38:57;;;;;;;9.48;6.00;;;;;;;;;;5002706;28;20100;-71
2022/04/15 07:41:23;;;;;;;13.02;9.02;;;;;;;;;;5003628;28;20026;-71
2022/04/15 07:43:49;;;;;;;18.88;10.00;;;;;;;;;;5009619;28;20117;-72
2022/04/15 07:46:16;;;;;;;12.48;7.22;;;;;;;;;;5003533;28;20494;-70
2022/04/15 07:48:42;;;;;;;11.25;7.07;;;;;;;;;;4998453;28;20390;-71
2022/04/15 07:51:08;;;;;;;12.90;7.78;;;;;;;;;;5009435;28;20029;-70
2022/04/15 07:53:34;;;;;;;11.88;7.05;;;;;;;;;;4996951;28;20050;-70
2022/04/15 07:56:01;;;;;;;11.48;7.55;;;;;;;;;;5004348;28;20060;-71
2022/04/15 07:58:27;;;;;;;17.35;8.50;;;;;;;;;;5003161;28;20030;-71
2022/04/15 08:00:54;;;;;;;10.82;7.90;;;;;;;;;;4988995;28;20049;-70
2022/04/15 08:03:21;;;;;;;12.02;7.50;;;;;;;;;;5006868;28;20448;-71
2022/04/15 08:05:47;;;;;;;13.02;7.72;;;;;;;;;;5005080;28;20034;-70
2022/04/15 08:08:13;;;;;;;10.55;7.70;;;;;;;;;;5004141;28;20033;-70
2022/04/15 08:10:40;;;;;;;14.98;8.70;;;;;;;;;;5005817;28;20474;-73
2022/04/15 08:13:07;;;;;;;13.70;7.22;;;;;;;;;;5013065;28;20096;-74
2022/04/15 08:15:33;;;;;;;15.60;6.88;;;;;;;;;;5006077;28;20053;-73
2022/04/15 08:17:59;;;;;;;13.93;7.30;;;;;;;;;;5010809;28;20521;-76
2022/04/15 08:20:25;;;;;;;11.98;6.05;;;;;;;;;;5007787;28;20101;-77
2022/04/15 08:22:51;;;;;;;12.80;7.22;;;;;;;;;;5012804;28;20103;-79
2022/04/15 08:25:17;;;;;;;12.10;6.88;;;;;;;;;;5007753;28;20113;-80
2022/04/15 08:27:43;;;;;;;15.40;7.05;;;;;;;;;;4991212;28;20041;-78
2022/04/15 08:30:09;;;;;;;11.63;6.75;;;;;;;;;;5002469;28;20034;-77
2022/04/15 08:32:35;;;;;;;12.05;6.60;;;;;;;;;;5004453;28;20160;-76
2022/04/15 08:35:02;;;;;;;13.18;5.05;;;;;;;;;;5010681;28;20041;-80
2022/04/15 08:37:28;;;;;;;9.32;5.70;;;;;;;;;;5006791;28;20029;-76
2022/04/15 08:39:54;;;;;;;8.73;4.72;;;;;;;;;;4998261;28;20037;-75
2022/04/15 08:42:20;;;;;;;11.07;5.93;;;;;;;;;;5001315;28;20033;-76
2022/04/15 08:44:56;;;;;;;14.90;7.50;;;;;;;;;;5009948;28;20053;-79
2022/04/15 08:47:22;;;;;;;14.30;8.85;;;;;;;;;;4999367;28;20474;-78
2022/04/15 08:49:48;;;;;;;14.73;6.13;;;;;;;;;;4980888;28;20046;-77
2022/04/15 08:52:15;;;;;;;16.77;5.32;;;;;;;;;;5007673;28;20049;-78
2022/04/15 08:54:41;;;;;;;14.60;6.32;;;;;;;;;;5011166;28;20120;-79
2022/04/15 08:57:07;;;;;;;9.93;4.55;;;;;;;;;;5009054;28;20022;-79
2022/04/15 08:59:34;;;;;;;12.75;5.85;;;;;;;;;;5011882;28;20053;-78
2022/04/15 09:02:00;;;;;;;9.38;4.28;;;;;;;;;;5009394;28;20371;-80
2022/04/15 09:04:26;;;;;;;15.70;6.55;;;;;;;;;;5007107;28;20038;-78
2022/04/15 09:06:55;;;;;;;10.45;4.43;;;;;;;;;;5012659;28;20489;-79
2022/04/15 09:09:24;;;;;;;11.50;5.47;;;;;;;;;;5012213;28;20041;-80
2022/04/15 09:11:51;;;;;;;5.85;4.47;;;;;;;;;;5000366;28;20030;-79
2022/04/15 09:14:17;;;;;;;6.03;3.42;;;;;;;;;;5001223;28;20054;-75
2022/04/15 09:16:50;;;;;;;8.38;4.25;;;;;;;;;;5031407;28;20041;-74
2022/04/15 09:19:17;;;;;;;4.70;3.40;;;;;;;;;;5023648;28;20683;-74
2022/04/15 09:21:50;;;;;;;6.30;3.53;;;;;;;;;;5037079;28;20061;-74
2022/04/15 09:24:17;;;;;;;11.18;3.75;;;;;;;;;;5023775;28;20044;-74
2022/04/15 09:26:46;;;;;;;8.00;4.07;;;;;;;;;;5021070;28;20037;-73
2022/04/15 09:29:15;;;;;;;10.55;4.97;;;;;;;;;;5009226;28;20087;-71
2022/04/15 09:31:44;;;;;;;11.02;3.58;;;;;;;;;;5026046;28;20057;-72
2022/04/15 09:34:10;;;;;;;6.28;3.58;;;;;;;;;;5020381;28;20029;-72
2022/04/15 09:36:37;;;;;;;7.97;3.80;;;;;;;;;;5004725;28;20417;-72
2022/04/15 09:39:10;;;;;;;7.38;4.22;;;;;;;;;;5026608;28;20029;-73
2022/04/15 09:41:37;;;;;;;6.22;3.70;;;;;;;;;;5022546;28;20037;-73
2022/04/15 09:44:04;;;;;;;8.43;3.22;;;;;;;;;;5023625;28;20039;-73
2022/04/15 09:46:30;;;;;;;7.28;3.95;;;;;;;;;;5013020;28;20041;-73
2022/04/15 09:49:14;;;;;;;5.50;3.05;;;;;;;;;;5032109;28;20112;-73
2022/04/15 09:51:46;;;;;;;8.63;2.92;;;;;;;;;;5026673;28;20021;-73
2022/04/15 09:54:25;;;;;;;5.28;3.13;;;;;;;;;;5025363;28;20563;-72
2022/04/15 09:56:52;;;;;;;5.28;3.10;;;;;;;;;;5020799;28;20026;-73
2022/04/15 09:59:21;;;;;;;7.22;2.92;;;;;;;;;;5020677;28;20037;-73
2022/04/15 10:01:48;;;;;;;7.05;2.97;;;;;;;;;;5017184;28;20425;-73
2022/04/15 10:04:15;;;;;;;3.75;2.15;;;;;;;;;;5014402;28;20393;-74
2022/04/15 10:06:43;;;;;;;6.20;2.72;;;;;;;;;;5017772;28;20128;-74
2022/04/15 10:09:12;;;;;;;11.15;4.95;;;;;;;;;;5014486;28;20124;-73
2022/04/15 10:11:40;;;;;;;7.28;2.70;;;;;;;;;;5023193;28;20501;-74
2022/04/15 10:14:06;;;;;;;7.25;2.70;;;;;;;;;;5020590;28;20040;-74
2022/04/15 10:16:32;;;;;;;4.63;2.72;;;;;;;;;;5008228;28;20056;-73
2022/04/15 10:19:01;;;;;;;6.25;2.90;;;;;;;;;;5022100;28;20393;-73
2022/04/15 10:21:28;;;;;;;5.20;2.55;;;;;;;;;;5022777;28;20029;-73
2022/04/15 10:23:54;;;;;;;5.53;2.90;;;;;;;;;;5006702;28;20092;-74
2022/04/15 10:26:21;;;;;;;7.22;2.50;;;;;;;;;;5006621;28;20030;-74
2022/04/15 10:28:48;;;;;;;5.30;3.08;;;;;;;;;;5017173;28;20160;-75
2022/04/15 10:31:16;;;;;;;5.40;2.90;;;;;;;;;;5020472;28;20421;-74
2022/04/15 10:33:43;;;;;;;5.28;2.80;;;;;;;;;;5006255;28;20388;-74
2022/04/15 10:36:22;;;;;;;6.75;2.50;;;;;;;;;;5018255;28;20040;-76
2022/04/15 10:39:03;;;;;;;5.25;2.67;;;;;;;;;;5020243;28;20112;-76
2022/04/15 10:41:52;;;;;;;9.38;3.13;;;;;;;;;;5023231;28;20045;-73
2022/04/15 10:44:26;;;;;;;8.85;5.28;;;;;;;;;;5018887;28;20076;-73
2022/04/15 10:46:52;;;;;;;5.32;3.08;;;;;;;;;;5019526;28;20038;-73
2022/04/15 10:49:23;;;;;;;6.45;3.05;;;;;;;;;;5030347;28;20112;-73
2022/04/15 10:51:51;;;;;;;5.43;3.60;;;;;;;;;;5030583;28;20461;-73
2022/04/15 10:54:36;;;;;;;6.32;3.65;;;;;;;;;;5028896;28;20038;-73
2022/04/15 10:57:02;;;;;;;5.80;3.88;;;;;;;;;;5030022;28;20029;-72
2022/04/15 11:02:19;;;;;;;5.45;3.53;;;;;;;;;;5025345;28;20045;-73
2022/04/15 11:04:49;;;;;;;7.60;4.13;;;;;;;;;;5029481;28;20037;-74
2022/04/15 11:07:17;;;;;;;8.05;4.20;;;;;;;;;;5030637;28;20034;-73
2022/04/15 11:09:43;;;;;;;5.00;3.65;;;;;;;;;;5028762;28;20030;-73
2022/04/15 11:12:11;;;;;;;6.55;4.13;;;;;;;;;;5030894;28;20045;-73
2022/04/15 11:14:38;;;;;;;5.82;4.13;;;;;;;;;;5030000;28;20041;-73
2022/04/15 11:17:09;;;;;;;9.20;4.50;;;;;;;;;;5022496;28;20474;-73
2022/04/15 11:19:36;;;;;;;8.23;3.80;;;;;;;;;;5011350;28;20061;-73
2022/04/15 11:22:02;;;;;;;5.40;3.85;;;;;;;;;;5030272;28;20108;-73
2022/04/15 11:24:30;;;;;;;7.70;3.30;;;;;;;;;;5022805;28;22062;-74
2022/04/15 11:27:03;;;;;;;9.00;3.80;;;;;;;;;;5030801;28;20526;-74
2022/04/15 11:29:35;;;;;;;9.23;3.80;;;;;;;;;;5032606;28;20112;-73
2022/04/15 11:32:05;;;;;;;6.43;4.10;;;;;;;;;;5030489;28;20069;-73
2022/04/15 11:34:31;;;;;;;6.97;3.75;;;;;;;;;;5024641;28;20034;-73
2022/04/15 11:37:01;;;;;;;8.05;4.55;;;;;;;;;;5048526;28;20110;-73
2022/04/15 11:39:28;;;;;;;4.75;3.50;;;;;;;;;;5034893;28;20026;-74
2022/04/15 11:41:57;;;;;;;7.50;4.07;;;;;;;;;;5034075;28;20038;-74
2022/04/15 11:44:28;;;;;;;7.78;4.50;;;;;;;;;;5033444;28;20059;-74
2022/04/15 11:46:54;;;;;;;7.65;3.90;;;;;;;;;;5031336;28;20080;-74
2022/04/15 11:49:20;;;;;;;6.68;4.30;;;;;;;;;;5021973;28;20029;-74
2022/04/15 11:51:47;;;;;;;8.82;4.03;;;;;;;;;;5033926;28;20025;-74
2022/04/15 11:54:14;;;;;;;7.85;4.57;;;;;;;;;;5033604;28;20081;-74
2022/04/15 11:56:42;;;;;;;9.35;4.40;;;;;;;;;;5032588;28;20034;-74
2022/04/15 11:59:09;;;;;;;6.13;3.80;;;;;;;;;;5036514;28;20051;-73
2022/04/15 12:01:35;;;;;;;10.43;4.28;;;;;;;;;;5033676;28;20025;-73
2022/04/15 12:04:01;;;;;;;10.02;4.00;;;;;;;;;;5014738;28;20381;-73
2022/04/15 12:06:29;;;;;;;7.40;4.13;;;;;;;;;;5033048;28;20026;-74
2022/04/15 12:08:57;;;;;;;5.70;3.92;;;;;;;;;;5032799;28;20021;-73
2022/04/15 12:11:24;;;;;;;7.28;4.18;;;;;;;;;;5032993;28;20024;-73
2022/04/15 12:14:01;;;;;;;12.05;4.70;;;;;;;;;;5033366;28;20041;-73
2022/04/15 12:16:29;;;;;;;5.07;3.70;;;;;;;;;;5023928;28;20046;-73
2022/04/15 12:18:56;;;;;;;9.43;4.40;;;;;;;;;;5029336;28;20053;-73
2022/04/15 12:21:23;;;;;;;12.70;5.43;;;;;;;;;;5032301;28;20025;-73
2022/04/15 12:24:09;;;;;;;9.75;3.45;;;;;;;;;;5031429;28;20036;-74
2022/04/15 12:26:51;;;;;;;6.80;4.05;;;;;;;;;;5032535;28;20040;-73
2022/04/15 12:32:24;;;;;;;9.60;5.28;;;;;;;;;;5038490;28;20060;-73
2022/04/15 12:34:56;;;;;;;6.80;3.88;;;;;;;;;;5033080;28;20397;-73
2022/04/15 12:37:41;;;;;;;8.73;4.50;;;;;;;;;;5032670;28;20404;-73
2022/04/15 12:40:29;;;;;;;7.07;3.97;;;;;;;;;;5032340;28;20053;-73
2022/04/15 12:42:55;;;;;;;9.23;4.80;;;;;;;;;;5031767;28;20026;-73
2022/04/15 12:45:23;;;;;;;5.63;3.72;;;;;;;;;;5025706;28;20092;-73
2022/04/15 12:48:03;;;;;;;9.32;5.05;;;;;;;;;;5032789;28;20042;-73
2022/04/15 12:50:31;;;;;;;6.72;3.80;;;;;;;;;;5032974;28;20036;-73
2022/04/15 12:52:57;;;;;;;9.00;5.25;;;;;;;;;;5031396;28;20044;-73
2022/04/15 12:55:36;;;;;;;8.02;4.93;;;;;;;;;;5032751;28;20034;-73
2022/04/15 12:58:03;;;;;;;10.55;4.15;;;;;;;;;;5030321;28;20044;-73
2022/04/15 13:00:30;;;;;;;8.30;4.70;;;;;;;;;;5030805;28;20516;-73
2022/04/15 13:02:56;;;;;;;11.02;4.72;;;;;;;;;;5033072;28;20026;-73
2022/04/15 13:05:24;;;;;;;11.90;4.88;;;;;;;;;;5023971;28;20411;-73
2022/04/15 13:07:50;;;;;;;10.35;4.82;;;;;;;;;;5032448;28;20572;-73
2022/04/15 13:10:17;;;;;;;11.32;4.70;;;;;;;;;;5031386;28;20735;-73
2022/04/15 13:12:43;;;;;;;12.07;5.32;;;;;;;;;;5028805;28;20029;-73
2022/04/15 13:15:09;;;;;;;14.52;5.50;;;;;;;;;;5030930;28;20033;-73
2022/04/15 13:17:36;;;;;;;10.15;5.05;;;;;;;;;;5031954;28;20100;-73
2022/04/15 13:20:02;;;;;;;12.27;4.85;;;;;;;;;;5040566;28;20465;-73
2022/04/15 13:22:28;;;;;;;9.23;4.97;;;;;;;;;;5032780;28;20056;-73
2022/04/15 13:24:54;;;;;;;8.05;4.97;;;;;;;;;;5031372;28;20034;-73
2022/04/15 13:27:20;;;;;;;6.72;4.68;;;;;;;;;;5028639;28;20106;-73
2022/04/15 13:29:46;;;;;;;9.38;4.03;;;;;;;;;;5011254;28;20460;-73
2022/04/15 13:32:13;;;;;;;6.75;4.07;;;;;;;;;;5020673;28;20105;-75
2022/04/15 13:34:39;;;;;;;7.95;3.97;;;;;;;;;;5026223;28;20053;-73
2022/04/15 13:37:06;;;;;;;6.78;3.55;;;;;;;;;;5044413;28;20025;-73
2022/04/15 13:39:34;;;;;;;8.88;4.03;;;;;;;;;;5028170;28;20025;-73
2022/04/15 13:42:01;;;;;;;8.35;3.78;;;;;;;;;;5020818;28;20038;-74
2022/04/15 13:44:28;;;;;;;6.93;3.85;;;;;;;;;;5023745;28;20117;-73
2022/04/15 13:46:54;;;;;;;6.53;3.95;;;;;;;;;;5019118;28;20055;-73
2022/04/15 13:49:21;;;;;;;7.22;3.95;;;;;;;;;;5021550;28;20080;-73
2022/04/15 13:51:47;;;;;;;6.07;4.15;;;;;;;;;;5023308;28;20075;-73
2022/04/15 13:56:58;;;;;;;10.38;6.20;;;;;;;;;;5017619;28;20132;-73
2022/04/15 13:59:24;;;;;;;8.07;4.28;;;;;;;;;;5026841;28;20139;-73
2022/04/15 14:01:50;;;;;;;8.80;4.75;;;;;;;;;;5023510;28;20033;-73
2022/04/15 14:04:17;;;;;;;9.10;4.43;;;;;;;;;;5022761;28;20124;-73
2022/04/15 14:06:44;;;;;;;7.28;4.05;;;;;;;;;;5020934;28;20044;-72
2022/04/15 14:09:11;;;;;;;8.38;4.38;;;;;;;;;;5019866;28;20041;-72
2022/04/15 14:11:41;;;;;;;7.55;4.57;;;;;;;;;;5024024;28;20461;-73
2022/04/15 14:14:08;;;;;;;8.85;4.55;;;;;;;;;;5024315;28;20051;-71
2022/04/15 14:16:35;;;;;;;11.73;5.00;;;;;;;;;;5020784;28;20056;-72
2022/04/15 14:19:02;;;;;;;6.78;4.45;;;;;;;;;;5024551;28;20623;-72
2022/04/15 14:21:29;;;;;;;10.43;5.10;;;;;;;;;;5020380;28;20076;-75
2022/04/15 14:23:55;;;;;;;8.77;5.22;;;;;;;;;;5017571;28;20132;-73
2022/04/15 14:26:21;;;;;;;9.25;5.30;;;;;;;;;;5026569;28;20029;-73
2022/04/15 14:28:48;;;;;;;6.20;3.97;;;;;;;;;;5030415;28;20030;-73
2022/04/15 14:31:14;;;;;;;8.88;5.22;;;;;;;;;;5029801;28;20380;-73
2022/04/15 14:33:41;;;;;;;9.27;4.85;;;;;;;;;;5044375;28;20289;-73
2022/04/15 14:36:07;;;;;;;9.23;5.15;;;;;;;;;;5029273;28;20100;-73
2022/04/15 14:38:34;;;;;;;8.05;4.43;;;;;;;;;;5027832;28;20080;-73
2022/04/15 14:41:01;;;;;;;11.25;4.30;;;;;;;;;;5023787;28;20156;-73
2022/04/15 14:43:27;;;;;;;9.48;5.00;;;;;;;;;;5030783;28;20037;-73
2022/04/15 14:45:55;;;;;;;14.98;5.35;;;;;;;;;;5027386;28;20029;-73
2022/04/15 14:48:22;;;;;;;7.40;4.00;;;;;;;;;;5029517;28;20022;-73
2022/04/15 14:50:48;;;;;;;6.47;4.45;;;;;;;;;;5002604;28;20034;-73